createdAt,value
2019-03-26T00:01:40.905Z,81.00
2019-03-26T00:04:09.637Z,80.50
2019-03-26T00:06:38.178Z,80.80
2019-03-26T00:09:08.726Z,80.00
2019-03-26T00:11:37.503Z,79.20
2019-03-26T00:14:06.149Z,79.40
2019-03-26T00:16:34.949Z,79.10
2019-03-26T00:19:03.520Z,79.10
2019-03-26T00:21:32.227Z,80.00
2019-03-26T00:24:00.805Z,79.30
2019-03-26T00:26:29.403Z,78.80
2019-03-26T00:28:57.957Z,78.00
2019-03-26T00:31:26.467Z,78.20
2019-03-26T00:33:55.006Z,77.40
2019-03-26T00:36:23.687Z,77.50
2019-03-26T00:38:52.198Z,77.50
2019-03-26T00:41:20.829Z,76.60
2019-03-26T00:43:49.351Z,74.30
2019-03-26T00:46:17.892Z,73.30
2019-03-26T00:48:46.407Z,72.80
2019-03-26T00:51:15.100Z,72.50
2019-03-26T00:53:43.698Z,72.60
2019-03-26T00:56:12.453Z,73.00
2019-03-26T00:58:41.061Z,72.30
2019-03-26T01:01:09.650Z,72.50
2019-03-26T01:03:38.209Z,71.70
2019-03-26T01:06:06.838Z,71.90
2019-03-26T01:08:35.466Z,71.70
2019-03-26T01:11:04.121Z,71.40
2019-03-26T01:13:32.594Z,71.60
2019-03-26T01:16:01.251Z,71.30
2019-03-26T01:18:29.806Z,71.10
2019-03-26T01:20:58.428Z,70.60
2019-03-26T01:23:27.123Z,71.40
2019-03-26T01:25:55.666Z,71.70
2019-03-26T01:28:24.192Z,71.70
2019-03-26T01:30:52.812Z,71.30
2019-03-26T01:33:21.319Z,70.60
2019-03-26T01:35:50.542Z,71.60
2019-03-26T01:38:19.156Z,71.30
2019-03-26T01:40:47.693Z,71.40
2019-03-26T01:43:16.292Z,70.50
2019-03-26T01:45:44.906Z,71.00
2019-03-26T01:48:13.556Z,70.70
2019-03-26T01:50:42.168Z,70.70
2019-03-26T01:53:10.749Z,70.20
2019-03-26T01:55:39.300Z,69.70
2019-03-26T01:58:07.902Z,70.60
2019-03-26T02:00:36.482Z,70.00
2019-03-26T02:03:05.185Z,69.70
2019-03-26T02:05:33.784Z,70.70
2019-03-26T02:08:02.355Z,69.80
2019-03-26T02:10:30.916Z,69.60
2019-03-26T02:12:59.474Z,69.80
2019-03-26T02:15:37.964Z,69.90
2019-03-26T02:18:08.452Z,69.50
2019-03-26T02:20:37.477Z,70.40
2019-03-26T02:23:24.706Z,70.40
2019-03-26T02:25:59.795Z,69.60
2019-03-26T02:28:35.261Z,68.80
2019-03-26T02:31:14.608Z,70.00
2019-03-26T02:36:59.884Z,69.20
2019-03-26T02:39:29.818Z,69.80
2019-03-26T02:45:15.438Z,69.90
2019-03-26T02:47:56.837Z,70.10
2019-03-26T02:50:20.368Z,69.40
2019-03-26T02:53:16.612Z,70.00
2019-03-26T02:55:49.959Z,70.80
2019-03-26T02:59:16.154Z,70.90
2019-03-26T03:17:45.904Z,67.00
2019-03-26T03:20:35.505Z,66.70
2019-03-26T03:23:07.292Z,67.90
2019-03-26T03:25:53.151Z,67.20
2019-03-26T03:28:19.742Z,67.30
2019-03-26T03:36:34.543Z,68.00
2019-03-26T03:44:44.192Z,67.70
2019-03-26T03:50:04.345Z,67.90
2019-03-26T03:52:36.128Z,68.00
2019-03-26T03:55:06.129Z,68.10
2019-03-26T03:57:37.815Z,68.20
2019-03-26T04:00:24.948Z,68.90
2019-03-26T04:02:53.584Z,68.30
2019-03-26T04:05:22.182Z,69.00
2019-03-26T04:07:50.691Z,69.60
2019-03-26T04:10:19.269Z,70.10
2019-03-26T04:12:48.016Z,70.20
2019-03-26T04:15:16.805Z,70.60
2019-03-26T04:17:45.411Z,71.50
2019-03-26T04:20:13.984Z,71.60
2019-03-26T04:22:42.609Z,72.10
2019-03-26T04:25:11.381Z,72.10
2019-03-26T04:27:40.024Z,71.80
2019-03-26T04:30:10.519Z,73.10
2019-03-26T04:32:39.148Z,73.10
2019-03-26T04:35:08.204Z,72.60
2019-03-26T04:37:36.775Z,73.90
2019-03-26T04:40:05.577Z,73.20
2019-03-26T04:42:34.354Z,73.40
2019-03-26T04:45:02.916Z,73.60
2019-03-26T04:47:31.626Z,72.60
2019-03-26T04:50:00.362Z,72.40
2019-03-26T04:52:28.970Z,73.30
2019-03-26T04:54:57.554Z,73.20
2019-03-26T04:57:26.178Z,72.80
2019-03-26T04:59:54.661Z,72.70
2019-03-26T05:02:23.164Z,72.40
2019-03-26T05:04:51.785Z,73.00
2019-03-26T05:07:20.464Z,73.70
2019-03-26T05:09:49.014Z,74.10
2019-03-26T05:12:17.654Z,74.10
2019-03-26T05:14:46.220Z,74.70
2019-03-26T05:17:14.936Z,75.50
2019-03-26T05:19:43.482Z,75.50
2019-03-26T05:22:23.577Z,76.70
2019-03-26T05:24:42.341Z,77.30
2019-03-26T05:27:10.884Z,77.60
2019-03-26T05:29:40.924Z,78.10
2019-03-26T05:32:09.509Z,78.50
2019-03-26T05:34:38.184Z,78.50
2019-03-26T05:37:06.946Z,78.80
2019-03-26T05:39:35.560Z,78.50
2019-03-26T05:42:04.196Z,78.60
2019-03-26T05:44:34.355Z,78.40
2019-03-26T05:47:03.006Z,78.40
2019-03-26T05:49:31.524Z,78.40
2019-03-26T05:52:00.275Z,78.50
2019-03-26T05:54:28.876Z,79.80
2019-03-26T05:56:57.403Z,80.50
2019-03-26T05:59:49.230Z,80.30
2019-03-26T06:05:21.343Z,80.40
2019-03-26T06:15:00.813Z,80.20
2019-03-26T06:17:44.532Z,80.00
2019-03-26T06:23:42.758Z,80.10
2019-03-26T06:32:29.779Z,80.10
2019-03-26T06:35:06.143Z,80.20
2019-03-26T06:37:34.719Z,81.30
2019-03-26T06:40:04.148Z,80.50
2019-03-26T06:42:32.859Z,80.80
2019-03-26T06:45:01.413Z,80.30
2019-03-26T06:47:29.990Z,80.00
2019-03-26T06:49:58.853Z,79.70
2019-03-26T06:52:27.424Z,80.20
2019-03-26T06:54:56.173Z,80.20
2019-03-26T06:57:35.131Z,79.70
2019-03-26T06:59:55.236Z,79.50
2019-03-26T07:02:23.748Z,80.00
2019-03-26T07:04:52.340Z,79.70
2019-03-26T07:07:30.808Z,80.20
2019-03-26T07:09:51.157Z,80.20
2019-03-26T07:12:20.076Z,80.70
2019-03-26T07:14:48.641Z,79.20
2019-03-26T07:17:17.429Z,79.70
2019-03-26T07:19:46.087Z,79.60
2019-03-26T07:22:14.801Z,79.50
2019-03-26T07:24:43.605Z,79.10
2019-03-26T07:27:12.313Z,78.90
2019-03-26T07:29:41.052Z,78.50
2019-03-26T07:32:09.746Z,78.30
2019-03-26T07:34:38.462Z,78.20
2019-03-26T07:37:07.236Z,78.40
2019-03-26T07:39:38.924Z,78.00
2019-03-26T07:42:06.170Z,77.10
2019-03-26T07:44:34.824Z,77.00
2019-03-26T07:47:03.468Z,76.80
2019-03-26T07:49:32.095Z,76.10
2019-03-26T07:52:00.783Z,76.20
2019-03-26T07:54:32.455Z,76.10
2019-03-26T07:57:00.072Z,75.30
2019-03-26T07:59:28.830Z,75.10
2019-03-26T08:01:57.549Z,74.40
2019-03-26T08:04:26.305Z,73.40
2019-03-26T08:06:55.097Z,73.10
2019-03-26T08:09:23.774Z,70.80
2019-03-26T08:11:52.561Z,70.60
2019-03-26T08:14:29.517Z,70.60
2019-03-26T08:17:25.817Z,70.00
2019-03-26T08:19:54.776Z,70.30
2019-03-26T08:22:23.555Z,70.00
2019-03-26T08:24:52.334Z,69.40
2019-03-26T08:27:21.157Z,69.50
2019-03-26T08:29:49.834Z,68.30
2019-03-26T08:32:18.704Z,67.60
2019-03-26T08:34:47.515Z,66.80
2019-03-26T08:37:16.216Z,65.10
2019-03-26T08:39:44.838Z,65.10
2019-03-26T08:42:13.396Z,65.50
2019-03-26T08:44:42.066Z,65.70
2019-03-26T08:47:10.821Z,66.30
2019-03-26T08:49:39.520Z,67.70
2019-03-26T08:52:20.310Z,66.30
2019-03-26T08:54:48.862Z,66.10
2019-03-26T08:57:17.526Z,66.40
2019-03-26T08:59:46.063Z,65.70
2019-03-26T09:02:14.703Z,66.20
2019-03-26T09:04:43.291Z,66.60
2019-03-26T09:07:11.953Z,66.10
2019-03-26T09:09:40.531Z,67.00
2019-03-26T09:12:09.198Z,66.80
2019-03-26T09:14:37.865Z,66.10
2019-03-26T09:17:06.587Z,66.80
2019-03-26T09:19:35.232Z,64.90
2019-03-26T09:22:03.966Z,64.20
2019-03-26T09:24:32.673Z,64.10
2019-03-26T09:27:01.374Z,63.20
2019-03-26T09:29:30.063Z,61.60
2019-03-26T09:31:58.714Z,61.90
2019-03-26T09:34:27.472Z,60.20
2019-03-26T09:36:56.238Z,59.90
2019-03-26T09:39:24.861Z,59.10
2019-03-26T09:41:53.498Z,59.20
2019-03-26T09:44:22.254Z,59.20
2019-03-26T09:46:50.852Z,59.50
2019-03-26T09:49:19.523Z,59.60
2019-03-26T09:51:48.200Z,59.70
2019-03-26T09:54:16.872Z,58.60
2019-03-26T09:56:45.638Z,59.00
2019-03-26T09:59:14.338Z,61.30
2019-03-26T10:01:43.035Z,60.60
2019-03-26T10:04:11.621Z,60.00
2019-03-26T10:06:40.308Z,60.30
2019-03-26T10:09:09.111Z,59.80
2019-03-26T10:11:37.714Z,60.80
2019-03-26T10:14:06.389Z,60.50
2019-03-26T10:16:35.156Z,59.70
2019-03-26T10:19:03.805Z,59.70
2019-03-26T10:21:32.520Z,60.80
2019-03-26T10:24:01.176Z,59.60
2019-03-26T10:26:29.906Z,58.80
2019-03-26T10:28:58.518Z,58.60
2019-03-26T10:31:27.156Z,58.80
2019-03-26T10:33:55.894Z,58.40
2019-03-26T10:36:44.008Z,58.10
2019-03-26T10:39:12.762Z,57.20
2019-03-26T10:41:41.546Z,56.90
2019-03-26T10:44:10.166Z,57.10
2019-03-26T10:46:40.415Z,55.40
2019-03-26T10:49:09.140Z,56.00
2019-03-26T10:51:37.886Z,56.60
2019-03-26T10:54:06.556Z,57.20
2019-03-26T10:56:35.200Z,58.40
2019-03-26T10:59:04.269Z,57.00
2019-03-26T11:01:33.237Z,57.00
2019-03-26T11:04:01.842Z,55.20
2019-03-26T11:06:30.482Z,55.50
2019-03-26T11:08:59.034Z,56.30
2019-03-26T11:11:27.680Z,56.60
2019-03-26T11:13:58.686Z,55.90
2019-03-26T11:16:26.483Z,55.20
2019-03-26T11:18:55.168Z,55.00
2019-03-26T11:21:23.765Z,55.00
2019-03-26T11:23:52.346Z,55.60
2019-03-26T11:26:21.033Z,55.70
2019-03-26T11:28:49.694Z,56.20
2019-03-26T11:31:18.254Z,56.80
2019-03-26T11:33:47.007Z,57.40
2019-03-26T11:36:15.616Z,57.80
2019-03-26T11:38:44.288Z,57.50
2019-03-26T11:41:13.044Z,56.10
2019-03-26T11:43:41.701Z,54.90
2019-03-26T11:46:10.431Z,51.90
2019-03-26T11:48:39.144Z,51.50
2019-03-26T11:51:08.122Z,48.80
2019-03-26T11:53:36.914Z,48.80
2019-03-26T11:56:05.668Z,47.40
2019-03-26T11:58:53.664Z,49.00
2019-03-26T12:01:22.244Z,49.00
2019-03-26T12:03:50.914Z,48.20
2019-03-26T12:06:19.670Z,48.30
2019-03-26T12:08:48.306Z,49.60
2019-03-26T12:11:16.958Z,49.10
2019-03-26T12:13:45.620Z,50.80
2019-03-26T12:16:14.394Z,52.10
2019-03-26T12:18:43.014Z,51.50
2019-03-26T12:21:11.748Z,49.80
2019-03-26T12:23:40.479Z,49.30
2019-03-26T12:26:09.258Z,47.70
2019-03-26T12:28:38.030Z,48.70
2019-03-26T12:31:06.710Z,47.20
2019-03-26T12:33:35.344Z,47.10
2019-03-26T12:36:04.002Z,47.90
2019-03-26T12:38:32.661Z,47.70
2019-03-26T12:41:01.345Z,48.20
2019-03-26T12:43:29.998Z,47.10
2019-03-26T12:46:01.672Z,47.40
2019-03-26T12:48:28.865Z,46.80
2019-03-26T12:50:57.431Z,46.60
2019-03-26T12:53:26.068Z,44.50
2019-03-26T12:55:54.843Z,43.40
2019-03-26T12:58:31.822Z,43.20
2019-03-26T13:00:53.861Z,43.70
2019-03-26T13:03:22.638Z,41.50
2019-03-26T13:05:51.275Z,42.40
2019-03-26T13:08:19.843Z,43.40
2019-03-26T13:10:53.783Z,43.90
2019-03-26T13:13:18.706Z,44.30
2019-03-26T13:15:47.479Z,45.10
2019-03-26T13:18:15.992Z,44.70
2019-03-26T13:20:44.809Z,44.30
2019-03-26T13:23:13.438Z,43.60
2019-03-26T13:25:42.067Z,44.00
2019-03-26T13:28:10.654Z,46.00
2019-03-26T13:30:39.326Z,42.10
2019-03-26T13:33:08.056Z,42.80
2019-03-26T13:35:36.658Z,42.20
2019-03-26T13:38:05.338Z,42.90
2019-03-26T13:40:34.038Z,43.60
2019-03-26T13:43:02.909Z,42.70
2019-03-26T13:45:32.952Z,42.00
2019-03-26T13:48:01.905Z,41.30
2019-03-26T13:50:30.493Z,39.60
2019-03-26T13:53:01.638Z,37.50
2019-03-26T13:55:30.244Z,36.30
2019-03-26T13:57:58.755Z,36.40
2019-03-26T14:00:35.679Z,38.60
2019-03-26T14:03:05.066Z,35.90
2019-03-26T14:05:33.783Z,37.80
2019-03-26T14:08:02.441Z,36.50
2019-03-26T14:10:40.848Z,38.10
2019-03-26T14:13:01.499Z,36.80
2019-03-26T14:15:30.145Z,36.50
2019-03-26T14:17:58.840Z,36.90
2019-03-26T14:20:27.571Z,36.30
2019-03-26T14:22:56.295Z,37.40
2019-03-26T14:25:25.327Z,36.70
2019-03-26T14:27:54.236Z,36.00
2019-03-26T14:30:37.339Z,36.30
2019-03-26T14:33:06.843Z,36.00
2019-03-26T14:35:35.420Z,37.50
2019-03-26T14:38:04.152Z,36.90
2019-03-26T14:40:32.796Z,38.20
2019-03-26T14:43:01.426Z,38.00
2019-03-26T14:45:30.189Z,35.90
2019-03-26T14:47:58.813Z,39.40
2019-03-26T14:50:27.516Z,40.80
2019-03-26T14:52:56.132Z,42.50
2019-03-26T14:55:24.763Z,41.80
2019-03-26T14:57:53.477Z,42.00
2019-03-26T15:00:22.124Z,42.60
2019-03-26T15:02:50.736Z,43.40
2019-03-26T15:05:19.429Z,44.30
2019-03-26T15:07:48.231Z,45.30
2019-03-26T15:10:16.919Z,45.20
2019-03-26T15:12:45.663Z,46.50
2019-03-26T15:15:14.402Z,47.00
2019-03-26T15:17:43.080Z,46.40
2019-03-26T15:20:11.903Z,46.00
2019-03-26T15:22:40.649Z,46.80
2019-03-26T15:25:09.319Z,46.80
2019-03-26T15:27:37.896Z,47.40
2019-03-26T15:30:08.411Z,47.20
2019-03-26T15:32:37.257Z,46.80
2019-03-26T15:35:07.438Z,47.70
2019-03-26T15:37:36.147Z,46.90
2019-03-26T15:40:07.632Z,47.90
2019-03-26T15:42:36.260Z,47.20
2019-03-26T15:45:09.148Z,45.60
2019-03-26T15:47:37.947Z,44.60
2019-03-26T15:50:07.128Z,44.60
2019-03-26T15:52:35.799Z,44.40
2019-03-26T15:55:05.589Z,43.70
2019-03-26T15:57:34.229Z,45.00
2019-03-26T16:00:03.982Z,44.10
2019-03-26T16:02:32.622Z,45.40
2019-03-26T16:05:01.340Z,46.20
2019-03-26T16:07:33.022Z,45.80
2019-03-26T16:10:00.650Z,46.40
2019-03-26T16:12:40.623Z,47.10
2019-03-26T16:14:59.593Z,47.40
2019-03-26T16:17:28.312Z,48.30
2019-03-26T16:19:56.931Z,49.30
2019-03-26T16:22:25.739Z,49.80
2019-03-26T16:24:54.377Z,50.60
2019-03-26T16:27:23.065Z,50.70
2019-03-26T16:29:52.142Z,51.30
2019-03-26T16:32:20.859Z,52.00
2019-03-26T16:34:49.426Z,52.40
2019-03-26T16:37:18.255Z,53.30
2019-03-26T16:39:46.869Z,53.20
2019-03-26T16:42:15.432Z,54.00
2019-03-26T16:44:44.129Z,54.60
2019-03-26T16:47:12.681Z,54.20
2019-03-26T16:49:41.408Z,54.00
2019-03-26T16:52:10.163Z,54.20
2019-03-26T16:54:38.785Z,54.70
2019-03-26T16:57:07.443Z,55.10
2019-03-26T16:59:36.079Z,54.90
2019-03-26T17:02:04.809Z,55.50
2019-03-26T17:04:33.495Z,56.40
2019-03-26T17:07:02.172Z,56.30
2019-03-26T17:09:30.800Z,56.70
2019-03-26T17:12:03.562Z,56.90
2019-03-26T17:14:29.929Z,57.10
2019-03-26T17:16:58.537Z,57.50
2019-03-26T17:19:27.223Z,57.40
2019-03-26T17:21:56.174Z,57.50
2019-03-26T17:24:24.897Z,57.90
2019-03-26T17:26:53.477Z,58.20
2019-03-26T17:29:22.146Z,58.50
2019-03-26T17:31:50.701Z,58.30
2019-03-26T17:34:19.372Z,59.10
2019-03-26T17:36:48.030Z,60.00
2019-03-26T17:39:16.539Z,61.00
2019-03-26T17:41:45.154Z,62.80
2019-03-26T17:44:14.007Z,63.10
2019-03-26T17:46:42.760Z,64.20
2019-03-26T17:49:11.363Z,63.90
2019-03-26T17:51:41.314Z,65.30
2019-03-26T17:54:09.907Z,66.50
2019-03-26T17:56:38.503Z,66.80
2019-03-26T17:59:07.097Z,66.80
2019-03-26T18:01:35.949Z,66.60
2019-03-26T18:04:04.669Z,66.30
2019-03-26T18:06:33.403Z,66.90
2019-03-26T18:09:02.079Z,66.60
2019-03-26T18:11:30.776Z,66.20
2019-03-26T18:13:59.575Z,65.90
2019-03-26T18:16:28.086Z,66.50
2019-03-26T18:18:56.730Z,65.30
2019-03-26T18:21:25.541Z,65.30
2019-03-26T18:23:54.162Z,64.90
2019-03-26T18:26:22.912Z,64.80
2019-03-26T18:28:51.566Z,64.30
2019-03-26T18:31:20.207Z,65.80
2019-03-26T18:33:48.785Z,65.50
2019-03-26T18:36:17.535Z,65.20
2019-03-26T18:38:46.163Z,65.10
2019-03-26T18:41:20.453Z,64.40
2019-03-26T18:43:52.297Z,64.00
2019-03-26T18:46:21.004Z,65.30
2019-03-26T18:48:49.652Z,66.40
2019-03-26T18:51:18.297Z,65.80
2019-03-26T18:53:46.850Z,65.70
2019-03-26T18:56:15.493Z,66.90
2019-03-26T18:58:44.181Z,65.90
2019-03-26T19:01:12.941Z,66.50
2019-03-26T19:03:41.624Z,67.20
2019-03-26T19:06:10.494Z,67.30
2019-03-26T19:08:40.062Z,67.40
2019-03-26T19:11:09.222Z,66.90
2019-03-26T19:13:37.825Z,67.00
2019-03-26T19:16:06.497Z,67.00
2019-03-26T19:18:35.123Z,66.90
2019-03-26T19:21:03.722Z,67.10
2019-03-26T19:23:33.110Z,68.40
2019-03-26T19:26:02.128Z,69.30
2019-03-26T19:28:30.842Z,69.70
2019-03-26T19:31:03.968Z,69.90
2019-03-26T19:33:32.656Z,69.90
2019-03-26T19:36:01.452Z,70.40
2019-03-26T19:38:30.111Z,71.10
2019-03-26T19:41:02.051Z,71.40
2019-03-26T19:43:33.012Z,72.30
2019-03-26T19:46:01.959Z,72.40
2019-03-26T19:48:31.492Z,71.80
2019-03-26T19:51:00.580Z,71.10
2019-03-26T19:53:29.433Z,71.70
2019-03-26T19:55:58.315Z,71.50
2019-03-26T19:58:28.061Z,71.40
2019-03-26T20:00:56.845Z,71.80
2019-03-26T20:03:25.595Z,72.10
2019-03-26T20:05:54.436Z,72.10
2019-03-26T20:08:23.212Z,72.10
2019-03-26T20:10:51.916Z,72.40
2019-03-26T20:13:24.732Z,72.90
2019-03-26T20:15:51.189Z,72.40
2019-03-26T20:18:19.833Z,72.50
2019-03-26T20:20:48.848Z,72.50
2019-03-26T20:23:17.460Z,72.40
2019-03-26T20:25:46.043Z,71.40
2019-03-26T20:28:14.755Z,72.50
2019-03-26T20:30:43.481Z,73.30
2019-03-26T20:33:12.284Z,74.40
2019-03-26T20:35:41.250Z,74.80
2019-03-26T20:38:10.005Z,74.80
2019-03-26T20:40:38.691Z,75.60
2019-03-26T20:43:07.577Z,76.30
2019-03-26T20:45:36.335Z,76.00
2019-03-26T20:48:05.176Z,76.80
2019-03-26T20:50:34.018Z,76.30
2019-03-26T20:53:04.214Z,76.70
2019-03-26T20:55:34.167Z,76.70
2019-03-26T20:58:03.226Z,76.70
2019-03-26T21:00:39.232Z,76.10
2019-03-26T21:03:27.203Z,75.90
2019-03-26T21:05:55.906Z,76.00
2019-03-26T21:08:24.468Z,76.70
2019-03-26T21:10:53.157Z,76.50
2019-03-26T21:13:21.713Z,75.90
2019-03-26T21:15:57.147Z,75.90
2019-03-26T21:18:20.864Z,75.80
2019-03-26T21:20:49.456Z,75.40
2019-03-26T21:23:18.072Z,75.10
2019-03-26T21:25:46.764Z,75.10
2019-03-26T21:28:15.370Z,75.80
2019-03-26T21:30:44.026Z,75.80
2019-03-26T21:33:12.844Z,75.80
2019-03-26T21:35:41.478Z,75.60
2019-03-26T21:38:10.077Z,75.70
2019-03-26T21:40:38.817Z,76.20
2019-03-26T21:43:07.448Z,75.70
2019-03-26T21:45:37.978Z,75.40
2019-03-26T21:48:07.586Z,75.40
2019-03-26T21:50:36.410Z,75.50
2019-03-26T21:53:05.323Z,75.60
2019-03-26T21:55:34.039Z,76.80
2019-03-26T21:58:02.628Z,77.10
2019-03-26T22:00:31.368Z,77.30
2019-03-26T22:03:00.014Z,76.80
2019-03-26T22:05:28.742Z,76.90
2019-03-26T22:07:57.542Z,77.00
2019-03-26T22:10:26.368Z,76.80
2019-03-26T22:12:55.254Z,76.70
2019-03-26T22:15:24.133Z,77.20
2019-03-26T22:17:52.890Z,77.70
2019-03-26T22:20:21.576Z,78.00
2019-03-26T22:22:50.237Z,78.10
2019-03-26T22:25:19.014Z,77.90
2019-03-26T22:27:51.320Z,77.70
2019-03-26T22:30:20.370Z,77.70
2019-03-26T22:32:49.048Z,78.30
2019-03-26T22:35:17.757Z,77.80
2019-03-26T22:37:46.412Z,77.70
2019-03-26T22:40:15.376Z,78.10
2019-03-26T22:42:44.194Z,77.90
2019-03-26T22:45:14.062Z,77.70
2019-03-26T22:47:42.737Z,77.80
2019-03-26T22:50:11.778Z,77.80
2019-03-26T22:52:42.654Z,77.40
2019-03-26T22:55:12.336Z,77.10
2019-03-26T22:57:41.160Z,77.30
2019-03-26T23:00:18.507Z,77.40
2019-03-26T23:02:47.168Z,77.20
2019-03-26T23:05:16.444Z,77.10
2019-03-26T23:07:45.189Z,76.80
2019-03-26T23:10:15.049Z,77.20
2019-03-26T23:12:43.844Z,77.50
2019-03-26T23:15:21.477Z,77.20
2019-03-26T23:17:50.343Z,77.40
2019-03-26T23:20:19.174Z,76.90
2019-03-26T23:22:47.988Z,77.10
2019-03-26T23:25:16.789Z,76.60
2019-03-26T23:27:45.552Z,77.10
2019-03-26T23:30:14.950Z,77.10
2019-03-26T23:32:43.739Z,77.00
2019-03-26T23:35:13.481Z,77.20
2019-03-26T23:37:42.329Z,77.80
2019-03-26T23:40:11.548Z,78.10
2019-03-26T23:42:40.313Z,78.10
2019-03-26T23:45:09.537Z,78.50
2019-03-26T23:47:38.185Z,77.50
2019-03-26T23:50:09.985Z,78.20
2019-03-26T23:52:38.734Z,78.30
2019-03-26T23:55:08.843Z,78.50
2019-03-26T23:57:37.793Z,78.50
